Orbital elements of COSMOS 2251 DEB
| Launched | 15 June 1993 |
| Flight ended | – |
| Launch site | Plesetsk Missile and Space Complex, Russia |
| Owner | Commonwealth of Independent States (former USSR) |
| NORAD ID | 34059 |
| Date fetched |
Epoch osculation |
Inc. [°] |
Ecc. | RA asc node [hr] |
Arg Peri. [°] |
Mean anom [°] |
Mean motion [rev/day] |
Abs. mag |
| Date fetched |
Epoch osculation |
Inc. [°] |
Ecc. | RA asc node [hr] |
Arg Peri. [°] |
Mean anom [°] |
Mean motion [rev/day] |
Abs. mag |
| 2026 May 03 17:57 | 2026 Apr 30 11:55:34 | 74.0371 | 0.00173 | 18.9535 | 328.4589 | 87.7074 | 14.53826 | – |
| 2026 May 02 17:57 | 2026 Apr 30 11:55:34 | 74.0371 | 0.00173 | 18.9535 | 328.4589 | 87.7074 | 14.53826 | – |
| 2026 May 01 17:56 | 2026 Apr 30 11:55:34 | 74.0371 | 0.00173 | 18.9535 | 328.4589 | 87.7074 | 14.53826 | – |
| 2026 Apr 30 17:56 | 2026 Apr 30 11:55:34 | 74.0371 | 0.00173 | 18.9535 | 328.4589 | 87.7074 | 14.53826 | – |
| 2026 Apr 29 17:57 | 2026 Apr 24 12:08:27 | 74.0364 | 0.00171 | 19.7081 | 341.3224 | 87.7074 | 14.53826 | – |
| 2026 Apr 28 17:56 | 2026 Apr 24 12:08:27 | 74.0364 | 0.00171 | 19.7081 | 341.3224 | 87.7074 | 14.53826 | – |
| 2026 Apr 27 17:58 | 2026 Apr 24 12:08:27 | 74.0364 | 0.00171 | 19.7081 | 341.3224 | 87.7074 | 14.53826 | – |
| 2026 Apr 26 17:58 | 2026 Apr 24 12:08:27 | 74.0364 | 0.00171 | 19.7081 | 341.3224 | 87.7074 | 14.53826 | – |
| 2026 Apr 25 17:58 | 2026 Apr 24 12:08:27 | 74.0364 | 0.00171 | 19.7081 | 341.3224 | 87.7074 | 14.53826 | – |
| 2026 Apr 24 17:59 | 2026 Apr 24 12:08:27 | 74.0364 | 0.00171 | 19.7081 | 341.3224 | 87.7074 | 14.53826 | – |
| 2026 Apr 23 17:57 | 2026 Apr 19 07:17:46 | 74.0369 | 0.00170 | 20.3633 | 352.3750 | 87.7074 | 14.53826 | – |
| 2026 Apr 22 17:57 | 2026 Apr 19 07:17:46 | 74.0369 | 0.00170 | 20.3633 | 352.3750 | 87.7074 | 14.53826 | – |
| 2026 Apr 21 17:57 | 2026 Apr 19 07:17:46 | 74.0369 | 0.00170 | 20.3633 | 352.3750 | 87.7074 | 14.53826 | – |
| 2026 Apr 20 17:57 | 2026 Apr 19 07:17:46 | 74.0369 | 0.00170 | 20.3633 | 352.3750 | 87.7074 | 14.53826 | – |
| 2026 Apr 19 17:58 | 2026 Apr 19 07:17:46 | 74.0369 | 0.00170 | 20.3633 | 352.3750 | 87.7074 | 14.53826 | – |
| 2026 Apr 18 17:56 | 2026 Apr 13 07:18:54 | 74.0376 | 0.00168 | 21.1189 | 4.9673 | 87.7074 | 14.53826 | – |
| 2026 Apr 16 17:57 | 2026 Apr 13 07:18:54 | 74.0376 | 0.00168 | 21.1189 | 4.9673 | 87.7074 | 14.53826 | – |
| 2026 Apr 14 17:57 | 2026 Apr 13 07:18:54 | 74.0376 | 0.00168 | 21.1189 | 4.9673 | 87.7074 | 14.53826 | – |
| 2026 Apr 13 17:57 | 2026 Apr 13 07:18:54 | 74.0376 | 0.00168 | 21.1189 | 4.9673 | 87.7074 | 14.53826 | – |
| 2026 Apr 12 17:57 | 2026 Apr 08 01:50:47 | 74.0391 | 0.00166 | 21.7773 | 15.9171 | 87.7074 | 14.53826 | – |
| 2026 Apr 11 17:57 | 2026 Apr 08 01:50:47 | 74.0391 | 0.00166 | 21.7773 | 15.9171 | 87.7074 | 14.53826 | – |
| 2026 Apr 10 17:58 | 2026 Apr 08 01:50:47 | 74.0391 | 0.00166 | 21.7773 | 15.9171 | 87.7074 | 14.53826 | – |
| 2026 Apr 09 18:01 | 2026 Apr 08 01:50:47 | 74.0391 | 0.00166 | 21.7773 | 15.9171 | 87.7074 | 14.53826 | – |
| 2026 Apr 08 17:57 | 2026 Apr 08 01:50:47 | 74.0391 | 0.00166 | 21.7773 | 15.9171 | 87.7074 | 14.53826 | – |
| 2026 Apr 07 17:57 | 2026 Apr 02 03:59:21 | 74.0403 | 0.00164 | 22.5216 | 28.4493 | 87.7074 | 14.53826 | – |
| 2026 Apr 06 17:57 | 2026 Apr 02 03:59:21 | 74.0403 | 0.00164 | 22.5216 | 28.4493 | 87.7074 | 14.53826 | – |